Time;durP1;ratioP1;P1;durP2;ratioP2;P2;SDS_P1;SDS_P2;PMS_P1;PMS_P2;Temp;Humidity;BMP_temperature;BMP_pressure;BME280_temperature;BME280_humidity;BME280_pressure;Samples;Min_cycle;Max_cycle;Signal;HPM_P1;HPM_P2
2021/10/06 00:02:14;;;;;;;29.43;14.30;;;;;;;8.41;100.00;101761.51;1705328;84;20994;-77
2021/10/06 00:04:41;;;;;;;27.47;14.07;;;;;;;8.37;100.00;101767.62;1705397;84;21042;-79
2021/10/06 00:07:07;;;;;;;25.20;11.87;;;;;;;8.31;100.00;101767.59;1705277;84;21021;-78
2021/10/06 00:09:34;;;;;;;31.27;13.23;;;;;;;8.26;100.00;101767.07;1705228;84;21433;-77
2021/10/06 00:12:03;;;;;;;41.80;20.20;;;;;;;8.22;100.00;101762.05;1705130;83;21101;-77
2021/10/06 00:14:30;;;;;;;33.90;19.23;;;;;;;8.18;100.00;101764.95;1705167;84;20982;-78
2021/10/06 00:16:56;;;;;;;31.60;20.47;;;;;;;8.13;100.00;101771.66;1682890;84;21050;-78
2021/10/06 00:19:23;;;;;;;40.30;25.50;;;;;;;8.06;100.00;101771.25;1705090;82;21006;-79
2021/10/06 00:21:50;;;;;;;35.60;18.63;;;;;;;8.00;100.00;101779.77;1705016;84;21065;-77
2021/10/06 00:24:17;;;;;;;35.87;18.80;;;;;;;7.97;100.00;101785.39;1705103;84;21029;-77
2021/10/06 00:26:44;;;;;;;29.67;12.87;;;;;;;7.92;100.00;101776.29;1705170;83;21049;-77
2021/10/06 00:29:11;;;;;;;44.80;19.77;;;;;;;7.86;100.00;101778.09;1705200;84;21018;-77
2021/10/06 00:31:38;;;;;;;44.67;21.50;;;;;;;7.82;100.00;101774.38;1704710;84;21057;-77
2021/10/06 00:34:05;;;;;;;43.63;20.53;;;;;;;7.77;100.00;101777.39;1704909;84;21062;-75
2021/10/06 00:36:32;;;;;;;52.87;19.97;;;;;;;7.73;100.00;101781.28;1704148;84;21049;-74
2021/10/06 00:38:58;;;;;;;35.93;17.77;;;;;;;7.69;100.00;101782.48;1704339;84;21060;-73
2021/10/06 00:41:25;;;;;;;37.30;17.87;;;;;;;7.67;100.00;101781.23;1704532;84;21050;-74
2021/10/06 00:43:52;;;;;;;44.37;20.60;;;;;;;7.63;100.00;101783.75;1704287;84;21567;-75
2021/10/06 00:46:19;;;;;;;34.50;17.40;;;;;;;7.60;100.00;101789.37;1727993;82;21061;-74
2021/10/06 00:48:46;;;;;;;30.20;13.90;;;;;;;7.56;100.00;101794.58;1742491;82;20986;-74
2021/10/06 00:51:13;;;;;;;25.07;11.67;;;;;;;7.52;100.00;101794.44;1742409;82;21492;-74
2021/10/06 00:53:40;;;;;;;29.83;13.37;;;;;;;7.50;100.00;101787.81;1742384;82;21029;-74
2021/10/06 00:56:07;;;;;;;24.17;12.03;;;;;;;7.48;100.00;101791.10;1767211;81;21072;-75
2021/10/06 00:58:33;;;;;;;23.93;12.13;;;;;;;7.46;100.00;101794.39;1773994;81;20981;-74
2021/10/06 01:01:01;;;;;;;30.77;14.73;;;;;;;7.44;100.00;101791.41;1773594;81;21045;-73
2021/10/06 01:03:27;;;;;;;24.97;12.10;;;;;;;7.41;100.00;101791.16;1774032;81;21029;-74
2021/10/06 01:05:54;;;;;;;23.97;11.33;;;;;;;7.40;100.00;101794.34;1775078;81;20974;-77
2021/10/06 01:08:21;;;;;;;26.87;12.07;;;;;;;7.40;100.00;101792.11;1775153;81;20977;-78
2021/10/06 01:10:48;;;;;;;20.63;10.13;;;;;;;7.38;100.00;101794.94;1774630;81;21067;-76
2021/10/06 01:13:16;;;;;;;21.13;10.87;;;;;;;7.36;100.00;101800.89;1775264;81;21005;-77
2021/10/06 01:15:46;;;;;;;21.93;10.47;;;;;;;7.36;100.00;101801.38;1770193;81;21028;-77
2021/10/06 01:18:14;;;;;;;20.37;11.00;;;;;;;7.34;100.00;101802.83;1702001;84;21061;-75
2021/10/06 01:20:41;;;;;;;25.30;12.40;;;;;;;7.30;100.00;101797.78;1702091;84;21036;-77
2021/10/06 01:23:08;;;;;;;19.83;10.67;;;;;;;7.28;100.00;101804.61;1702173;84;21052;-77
2021/10/06 01:25:34;;;;;;;24.20;11.07;;;;;;;7.27;100.00;101800.68;1701684;84;21046;-77
2021/10/06 01:28:02;;;;;;;19.30;10.20;;;;;;;7.25;100.00;101808.86;1701879;84;21480;-78
2021/10/06 01:30:29;;;;;;;23.07;10.40;;;;;;;7.22;100.00;101808.59;1701721;84;21042;-77
2021/10/06 01:32:55;;;;;;;17.07;8.63;;;;;;;7.18;100.00;101817.83;1702060;84;21029;-78
2021/10/06 01:35:22;;;;;;;24.97;9.70;;;;;;;7.16;100.00;101818.91;1701773;84;21022;-77
2021/10/06 01:37:48;;;;;;;19.93;9.10;;;;;;;7.15;100.00;101821.21;1702070;84;21104;-76
2021/10/06 01:40:18;;;;;;;18.80;8.90;;;;;;;7.11;100.00;101822.40;1668591;84;21027;-77
2021/10/06 01:42:45;;;;;;;17.27;9.00;;;;;;;7.07;100.00;101811.48;1674246;86;21050;-77
2021/10/06 01:45:24;;;;;;;21.83;9.77;;;;;;;7.03;100.00;101823.79;1664079;86;20983;-75
2021/10/06 01:47:51;;;;;;;27.50;12.30;;;;;;;6.99;100.00;101820.05;1670240;86;21006;-76
2021/10/06 01:50:23;;;;;;;79.77;33.20;;;;;;;6.98;100.00;101829.11;1661161;86;21086;-77
2021/10/06 01:52:50;;;;;;;47.77;22.23;;;;;;;6.96;100.00;101828.35;1606914;89;21027;-77
2021/10/06 01:55:16;;;;;;;103.07;42.67;;;;;;;6.92;100.00;101825.47;1600381;89;21686;-77
2021/10/06 01:57:43;;;;;;;66.63;27.13;;;;;;;6.89;100.00;101827.89;1589311;90;21065;-78
2021/10/06 02:00:13;;;;;;;86.43;35.23;;;;;;;6.88;100.00;101829.34;1589294;90;21096;-78
2021/10/06 02:02:40;;;;;;;82.63;33.87;;;;;;;6.88;100.00;101830.20;1589137;90;21029;-78
2021/10/06 02:05:07;;;;;;;96.77;38.53;;;;;;;6.89;100.00;101833.27;1568886;90;21555;-77
2021/10/06 02:07:34;;;;;;;117.80;47.07;;;;;;;6.92;100.00;101830.36;1586057;90;21045;-78
2021/10/06 02:10:01;;;;;;;80.80;34.13;;;;;;;6.94;100.00;101827.11;1563187;92;21627;-76
2021/10/06 02:12:28;;;;;;;176.40;59.57;;;;;;;6.98;100.00;101828.61;1563506;92;21064;-76
2021/10/06 02:14:54;;;;;;;136.33;48.77;;;;;;;7.02;100.00;101829.27;1563761;92;21093;-76
2021/10/06 02:17:21;;;;;;;120.57;41.57;;;;;;;7.07;100.00;101830.31;1563773;92;21069;-77
2021/10/06 02:19:47;;;;;;;112.93;40.70;;;;;;;7.09;100.00;101826.53;1563757;92;21522;-78
2021/10/06 02:22:14;;;;;;;55.33;22.53;;;;;;;7.10;100.00;101830.97;1563877;90;21073;-77
2021/10/06 02:24:41;;;;;;;38.33;15.20;;;;;;;7.13;100.00;101830.73;1563677;92;21105;-76
2021/10/06 02:27:08;;;;;;;30.37;12.87;;;;;;;7.13;100.00;101824.00;1563770;92;21946;-78
2021/10/06 02:29:34;;;;;;;24.47;10.77;;;;;;;7.16;100.00;101822.45;1563856;92;21041;-77
2021/10/06 02:32:01;;;;;;;23.47;10.43;;;;;;;7.17;100.00;101823.31;1564188;92;21020;-78
2021/10/06 02:34:28;;;;;;;20.83;8.70;;;;;;;7.19;100.00;101822.75;1563780;92;21065;-77
2021/10/06 02:36:55;;;;;;;17.20;6.90;;;;;;;7.21;100.00;101828.88;1563720;92;21056;-77
2021/10/06 02:39:21;;;;;;;18.27;7.20;;;;;;;7.23;100.00;101830.98;1563170;92;21049;-78
2021/10/06 02:41:48;;;;;;;17.87;7.10;;;;;;;7.26;100.00;101830.77;1562923;92;21041;-76
2021/10/06 02:44:15;;;;;;;21.00;7.37;;;;;;;7.26;100.00;101822.70;1562774;92;21638;-75
2021/10/06 02:46:42;;;;;;;23.47;9.50;;;;;;;7.27;100.00;101820.86;1588216;90;21105;-77
2021/10/06 02:49:08;;;;;;;19.03;7.80;;;;;;;7.27;100.00;101824.90;1648126;82;21022;-76
2021/10/06 02:51:37;;;;;;;22.80;8.50;;;;;;;7.27;100.00;101824.41;1757928;82;21549;-78
2021/10/06 02:54:03;;;;;;;21.73;10.23;;;;;;;7.26;100.00;101825.85;1757918;82;20958;-78
2021/10/06 02:56:30;;;;;;;23.80;10.93;;;;;;;7.25;100.00;101824.15;1770264;81;21467;-75
2021/10/06 02:58:57;;;;;;;20.47;8.53;;;;;;;7.21;100.00;101833.77;1773935;81;21332;-76
2021/10/06 03:01:23;;;;;;;17.40;7.30;;;;;;;7.18;100.00;101839.84;1774121;81;21084;-76
2021/10/06 03:03:50;;;;;;;24.13;9.63;;;;;;;7.11;100.00;101843.42;1773934;81;21021;-77
2021/10/06 03:06:18;;;;;;;20.90;9.87;;;;;;;7.06;100.00;101844.22;1774126;81;21083;-75
2021/10/06 03:08:44;;;;;;;19.00;10.07;;;;;;;7.04;100.00;101851.53;1773856;81;21041;-76
2021/10/06 03:11:12;;;;;;;19.33;9.13;;;;;;;6.99;100.00;101847.83;1774042;81;21060;-77
2021/10/06 03:13:38;;;;;;;20.17;10.20;;;;;;;6.96;100.00;101848.52;1773806;81;21060;-77
2021/10/06 03:16:06;;;;;;;20.63;10.27;;;;;;;6.92;100.00;101845.64;1774260;81;21013;-76
2021/10/06 03:18:33;;;;;;;23.57;11.60;;;;;;;6.87;100.00;101851.80;1773728;81;21507;-77
2021/10/06 03:21:00;;;;;;;29.83;15.53;;;;;;;6.81;100.00;101853.09;1773914;81;21005;-76
2021/10/06 03:23:26;;;;;;;18.60;9.87;;;;;;;6.74;100.00;101853.97;1774063;81;20969;-76
2021/10/06 03:25:53;;;;;;;21.90;10.07;;;;;;;6.67;100.00;101858.03;1774065;81;21577;-75
2021/10/06 03:28:20;;;;;;;31.13;15.40;;;;;;;6.60;100.00;101853.53;1773694;81;21088;-76
2021/10/06 03:30:48;;;;;;;42.83;19.53;;;;;;;6.53;100.00;101848.67;1774312;81;20993;-78
2021/10/06 03:33:15;;;;;;;141.00;48.23;;;;;;;6.45;100.00;101851.38;1773881;81;21060;-77
2021/10/06 03:35:41;;;;;;;47.57;21.20;;;;;;;6.38;100.00;101847.86;1773895;81;21001;-75
2021/10/06 03:38:09;;;;;;;28.27;12.70;;;;;;;6.30;100.00;101852.36;1772209;81;21061;-73
2021/10/06 03:40:36;;;;;;;36.47;17.33;;;;;;;6.22;100.00;101850.67;1742154;82;21087;-74
2021/10/06 03:43:03;;;;;;;35.30;16.17;;;;;;;6.16;100.00;101850.59;1741909;82;21091;-74
2021/10/06 03:45:31;;;;;;;28.40;13.00;;;;;;;6.08;100.00;101852.40;1743150;82;21555;-74
2021/10/06 03:47:58;;;;;;;30.60;14.20;;;;;;;6.01;100.00;101844.84;1746308;82;21054;-75
2021/10/06 03:50:25;;;;;;;22.90;9.90;;;;;;;5.94;100.00;101855.06;1746494;82;21065;-74
2021/10/06 03:52:52;;;;;;;22.97;9.77;;;;;;;5.86;100.00;101854.22;1746487;82;21006;-74
2021/10/06 03:55:18;;;;;;;20.80;8.57;;;;;;;5.83;100.00;101854.89;1747655;81;21527;-75
2021/10/06 03:57:45;;;;;;;21.90;9.37;;;;;;;5.77;100.00;101857.94;1754443;81;21074;-75
2021/10/06 04:00:12;;;;;;;31.70;12.83;;;;;;;5.71;100.00;101855.16;1754544;82;21077;-72
2021/10/06 04:02:39;;;;;;;37.07;15.03;;;;;;;5.66;100.00;101855.44;1754510;81;21526;-73
2021/10/06 04:05:07;;;;;;;24.87;9.83;;;;;;;5.61;100.00;101856.69;1754463;82;21045;-73
2021/10/06 04:07:34;;;;;;;46.63;14.57;;;;;;;5.56;100.00;101859.67;1754698;82;21010;-74
2021/10/06 04:10:04;;;;;;;44.63;12.77;;;;;;;5.53;100.00;101859.85;1725667;82;21007;-74
2021/10/06 04:12:30;;;;;;;61.93;14.50;;;;;;;5.50;100.00;101858.20;1754461;82;21022;-74
2021/10/06 04:14:57;;;;;;;89.30;27.90;;;;;;;5.48;100.00;101869.51;1754633;81;21523;-73
2021/10/06 04:17:24;;;;;;;106.40;28.67;;;;;;;5.45;100.00;101874.20;1754170;82;21022;-74
2021/10/06 04:19:50;;;;;;;49.60;16.90;;;;;;;5.41;100.00;101872.19;1754632;82;21023;-73
2021/10/06 04:22:18;;;;;;;38.23;15.50;;;;;;;5.39;100.00;101875.92;1754258;82;21587;-74
2021/10/06 04:24:45;;;;;;;94.10;40.83;;;;;;;5.37;100.00;101875.16;1754498;82;20998;-74
2021/10/06 04:27:11;;;;;;;44.60;16.93;;;;;;;5.32;100.00;101874.94;1754634;82;20998;-74
2021/10/06 04:29:38;;;;;;;22.43;9.77;;;;;;;5.31;100.00;101872.34;1754755;82;21100;-73
2021/10/06 04:32:05;;;;;;;35.53;13.77;;;;;;;5.28;100.00;101870.72;1754563;81;21065;-73
2021/10/06 04:34:33;;;;;;;41.87;17.53;;;;;;;5.25;100.00;101872.23;1754654;82;21042;-74
2021/10/06 04:37:02;;;;;;;24.67;10.07;;;;;;;5.23;100.00;101872.81;1725080;82;20999;-75
2021/10/06 04:39:29;;;;;;;59.87;22.30;;;;;;;5.23;100.00;101880.86;1747247;82;21014;-72
2021/10/06 04:41:57;;;;;;;231.17;87.93;;;;;;;5.22;100.00;101884.48;1741923;82;21558;-74
2021/10/06 04:44:24;;;;;;;127.10;53.00;;;;;;;5.23;100.00;101881.34;1741996;82;21021;-73
2021/10/06 04:46:51;;;;;;;38.73;17.30;;;;;;;5.22;100.00;101880.45;1752401;82;21142;-73
2021/10/06 04:49:18;;;;;;;45.63;20.17;;;;;;;5.21;100.00;101875.22;1754403;82;21038;-74
2021/10/06 04:51:45;;;;;;;43.73;18.43;;;;;;;5.21;100.00;101877.41;1754254;81;21034;-73
2021/10/06 04:54:11;;;;;;;28.27;11.27;;;;;;;5.21;100.00;101879.23;1754471;82;20966;-73
2021/10/06 04:56:38;;;;;;;21.83;8.37;;;;;;;5.22;100.00;101883.63;1749610;82;21085;-74
2021/10/06 04:59:05;;;;;;;20.40;8.53;;;;;;;5.22;100.00;101883.14;1746818;82;21037;-74
2021/10/06 05:01:31;;;;;;;36.80;18.43;;;;;;;5.22;100.00;101879.61;1746677;82;21532;-73
2021/10/06 05:03:58;;;;;;;25.13;11.40;;;;;;;5.23;100.00;101875.98;1746584;82;21018;-72
2021/10/06 05:06:25;;;;;;;20.67;9.10;;;;;;;5.25;100.00;101871.38;1746491;82;21027;-74
2021/10/06 05:08:53;;;;;;;27.93;10.60;;;;;;;5.30;100.00;101882.70;1746731;82;21509;-76
2021/10/06 05:11:22;;;;;;;45.03;23.93;;;;;;;5.33;100.00;101876.67;1746281;82;21050;-78
2021/10/06 05:13:49;;;;;;;26.40;10.13;;;;;;;5.39;100.00;101881.30;1746688;82;21010;-72
2021/10/06 05:16:16;;;;;;;24.20;10.20;;;;;;;5.45;100.00;101884.93;1746090;82;21006;-74
2021/10/06 05:18:43;;;;;;;16.93;6.63;;;;;;;5.50;100.00;101885.03;1746703;82;21014;-74
2021/10/06 05:21:10;;;;;;;19.73;7.70;;;;;;;5.55;100.00;101879.89;1746752;81;21107;-75
2021/10/06 05:23:37;;;;;;;27.13;10.00;;;;;;;5.63;100.00;101881.60;1737271;81;21042;-75
2021/10/06 05:26:03;;;;;;;27.50;12.60;;;;;;;5.68;100.00;101885.76;1735193;81;21461;-73
2021/10/06 05:28:30;;;;;;;26.03;8.83;;;;;;;5.76;100.00;101883.93;1723899;81;21013;-73
2021/10/06 05:31:00;;;;;;;23.93;8.03;;;;;;;5.82;100.00;101893.42;1724046;83;21578;-73
2021/10/06 05:33:27;;;;;;;33.03;10.80;;;;;;;5.84;100.00;101887.47;1694118;85;20989;-73
2021/10/06 05:35:54;;;;;;;34.93;12.47;;;;;;;5.86;100.00;101885.09;1694135;85;21037;-74
2021/10/06 05:38:21;;;;;;;35.17;13.37;;;;;;;5.92;100.00;101889.21;1664600;86;21050;-73
2021/10/06 05:40:48;;;;;;;50.57;18.20;;;;;;;5.97;100.00;101897.03;1690561;84;21006;-73
2021/10/06 05:43:15;;;;;;;34.47;15.13;;;;;;;6.01;100.00;101911.48;1693341;85;21011;-75
2021/10/06 05:45:42;;;;;;;34.30;14.53;;;;;;;6.08;100.00;101907.45;1712155;82;20987;-75
2021/10/06 05:48:09;;;;;;;33.27;14.07;;;;;;;6.17;100.00;101897.96;1746562;82;21030;-73
2021/10/06 05:50:35;;;;;;;30.57;13.27;;;;;;;6.24;100.00;101901.98;1746219;82;21544;-74
2021/10/06 05:53:04;;;;;;;39.97;14.83;;;;;;;6.33;100.00;101899.68;1746670;82;21535;-75
2021/10/06 05:55:31;;;;;;;38.63;12.80;;;;;;;6.42;100.00;101903.12;1746254;82;21507;-74
2021/10/06 05:57:59;;;;;;;41.87;15.03;;;;;;;6.50;100.00;101906.19;1746040;82;21065;-74
2021/10/06 06:00:26;;;;;;;35.77;11.93;;;;;;;6.57;100.00;101907.97;1745939;82;21034;-73
2021/10/06 06:02:52;;;;;;;32.93;11.47;;;;;;;6.64;100.00;101913.36;1746263;82;21050;-72
2021/10/06 06:05:19;;;;;;;24.97;10.03;;;;;;;6.72;100.00;101912.84;1746562;82;21030;-74
2021/10/06 06:07:47;;;;;;;26.20;9.40;;;;;;;6.82;100.00;101905.91;1746427;82;21030;-76
2021/10/06 06:10:14;;;;;;;31.50;12.37;;;;;;;6.97;100.00;101907.56;1731913;82;20988;-73
2021/10/06 06:12:43;;;;;;;30.87;11.47;;;;;;;7.13;100.00;101903.37;1749951;82;21077;-71
2021/10/06 06:15:10;;;;;;;49.77;23.93;;;;;;;7.28;100.00;101900.14;1749951;81;21087;-74
2021/10/06 06:17:37;;;;;;;29.53;13.37;;;;;;;7.45;100.00;101908.39;1718488;83;21573;-76
2021/10/06 06:20:08;;;;;;;36.20;15.83;;;;;;;7.63;100.00;101917.52;1689538;83;21024;-75
2021/10/06 06:22:42;;;;;;;31.73;12.47;;;;;;;7.79;100.00;101907.40;1670751;86;21057;-73
2021/10/06 06:25:10;;;;;;;38.43;15.07;;;;;;;7.98;100.00;101909.20;1670675;86;21018;-73
2021/10/06 06:27:37;;;;;;;35.23;10.00;;;;;;;8.22;100.00;101903.52;1670462;86;21547;-75
2021/10/06 06:30:06;;;;;;;41.37;14.37;;;;;;;8.40;100.00;101898.63;1669572;86;21637;-73
2021/10/06 06:32:35;;;;;;;40.37;13.37;;;;;;;8.50;100.00;101899.23;1669253;86;21662;-74
2021/10/06 06:35:04;;;;;;;34.83;15.67;;;;;;;8.64;100.00;101904.08;1670154;86;21157;-74
2021/10/06 06:37:31;;;;;;;33.70;12.47;;;;;;;8.81;100.00;101898.30;1670087;86;21534;-74
2021/10/06 06:39:58;;;;;;;39.03;16.00;;;;;;;9.03;100.00;101896.69;1670489;86;21061;-75
2021/10/06 06:42:25;;;;;;;29.37;10.83;;;;;;;9.25;100.00;101893.23;1670695;86;21045;-75
2021/10/06 06:44:52;;;;;;;19.30;6.20;;;;;;;9.44;100.00;101897.59;1670926;84;21170;-75
2021/10/06 06:47:19;;;;;;;20.57;6.23;;;;;;;9.61;100.00;101898.12;1702307;84;21059;-74
2021/10/06 06:49:46;;;;;;;29.03;10.00;;;;;;;9.74;100.00;101907.00;1702138;84;21486;-74
2021/10/06 06:52:12;;;;;;;15.30;5.43;;;;;;;9.79;100.00;101902.10;1668062;86;21091;-75
2021/10/06 06:54:39;;;;;;;27.80;9.07;;;;;;;9.92;100.00;101903.84;1622494;88;21074;-73
2021/10/06 06:57:06;;;;;;;36.35;13.78;;;;;;;10.07;100.00;101899.42;1617005;87;21600;-72
2021/10/06 06:59:33;;;;;;;44.77;21.00;;;;;;;10.30;100.00;101907.52;1630890;87;21029;-73
2021/10/06 07:02:00;;;;;;;23.75;8.83;;;;;;;10.55;100.00;101893.38;1667435;86;21026;-74
2021/10/06 07:04:26;;;;;;;33.92;9.85;;;;;;;10.79;100.00;101882.39;1644634;86;21036;-72
2021/10/06 07:06:56;;;;;;;56.25;16.42;;;;;;;11.02;100.00;101892.65;1667068;86;21065;-74
2021/10/06 07:09:25;;;;;;;27.15;7.12;;;;;;;11.16;100.00;101892.84;1676908;85;21081;-74
2021/10/06 07:11:52;;;;;;;31.62;9.98;;;;;;;11.24;100.00;101885.41;1676828;85;21045;-72
2021/10/06 07:14:19;;;;;;;39.80;13.85;;;;;;;11.33;100.00;101890.05;1676777;85;21033;-73
2021/10/06 07:16:45;;;;;;;30.05;8.95;;;;;;;11.44;100.00;101895.42;1676541;85;21495;-73
2021/10/06 07:19:12;;;;;;;24.18;7.80;;;;;;;11.61;100.00;101890.39;1725282;80;21013;-72
2021/10/06 07:21:43;;;;;;;37.78;8.80;;;;;;;11.74;100.00;101882.93;1789610;80;20991;-70
2021/10/06 07:24:08;;;;;;;22.10;5.97;;;;;;;11.92;100.00;101883.20;1785473;80;21495;-75
2021/10/06 07:26:35;;;;;;;29.92;8.88;;;;;;;11.91;86.53;101891.80;1789546;80;21045;-74
2021/10/06 07:29:03;;;;;;;40.28;9.88;;;;;;;11.86;85.79;101893.17;1789655;80;21472;-73
2021/10/06 07:31:32;;;;;;;30.92;10.23;;;;;;;11.81;84.80;101888.65;1789619;80;21534;-73
2021/10/06 07:33:59;;;;;;;40.88;14.68;;;;;;;11.89;85.41;101887.48;1789884;80;21046;-74
2021/10/06 07:36:25;;;;;;;34.10;7.10;;;;;;;11.99;83.98;101882.14;1790057;80;21017;-73
2021/10/06 07:38:55;;;;;;;21.20;4.80;;;;;;;12.09;80.63;101877.15;1773463;80;21005;-73
2021/10/06 07:41:21;;;;;;;19.05;5.20;;;;;;;12.15;75.07;101872.52;1710891;84;21061;-71
2021/10/06 07:43:49;;;;;;;38.38;5.67;;;;;;;12.21;74.38;101871.61;1723089;83;20987;-71
2021/10/06 07:46:16;;;;;;;14.53;3.40;;;;;;;12.24;69.35;101867.28;1718689;83;21002;-73
2021/10/06 07:48:43;;;;;;;21.77;4.35;;;;;;;12.21;65.74;101858.91;1716271;84;21527;-73
2021/10/06 07:51:10;;;;;;;36.95;10.38;;;;;;;12.29;68.54;101865.02;1716317;84;21531;-75
2021/10/06 07:53:47;;;;;;;25.68;5.53;;;;;;;12.43;66.64;101863.27;1716236;84;21069;-76
2021/10/06 07:56:14;;;;;;;25.88;5.15;;;;;;;12.48;61.51;101854.70;1714423;84;21590;-77
2021/10/06 07:58:41;;;;;;;28.75;5.25;;;;;;;12.45;58.70;101856.36;1705469;83;21022;-75
2021/10/06 08:01:09;;;;;;;16.12;4.62;;;;;;;12.49;60.89;101847.78;1698417;83;21038;-73
2021/10/06 08:03:36;;;;;;;26.87;6.33;;;;;;;12.66;61.22;101853.03;1686701;85;21112;-75
2021/10/06 08:06:03;;;;;;;27.70;6.00;;;;;;;12.73;57.05;101861.48;1698528;84;21062;-76
2021/10/06 08:08:30;;;;;;;35.60;6.22;;;;;;;12.80;57.44;101859.03;1700600;83;21041;-76
2021/10/06 08:11:00;;;;;;;29.95;6.37;;;;;;;12.88;54.01;101862.77;1718945;83;21031;-76
2021/10/06 08:13:27;;;;;;;19.95;6.53;;;;;;;12.90;52.61;101861.27;1736573;83;21034;-76
2021/10/06 08:15:54;;;;;;;27.58;7.97;;;;;;;12.82;50.49;101862.46;1767108;80;20982;-74
2021/10/06 08:18:20;;;;;;;20.65;5.40;;;;;;;12.76;50.73;101854.39;1750776;81;20995;-75
2021/10/06 08:20:50;;;;;;;19.92;6.05;;;;;;;12.81;51.21;101860.25;1745377;81;21062;-73
2021/10/06 08:23:17;;;;;;;29.40;6.12;;;;;;;12.91;51.77;101854.84;1670283;86;21089;-74
2021/10/06 08:25:46;;;;;;;26.77;6.42;;;;;;;13.01;51.19;101846.18;1670963;86;21105;-73
2021/10/06 08:28:13;;;;;;;32.45;6.90;;;;;;;13.09;49.50;101840.05;1691838;84;21060;-75
2021/10/06 08:30:40;;;;;;;27.02;8.63;;;;;;;13.14;49.91;101836.41;1674958;84;21529;-78
2021/10/06 08:33:07;;;;;;;29.25;7.70;;;;;;;13.29;49.63;101843.59;1673814;84;21045;-75
2021/10/06 08:35:34;;;;;;;28.80;5.83;;;;;;;13.36;47.98;101839.33;1670198;85;21049;-78
2021/10/06 08:40:33;;;;;;;25.72;7.15;;;;;;;13.45;46.81;101825.38;1644016;87;21070;-75
2021/10/06 08:43:01;;;;;;;23.50;7.72;;;;;;;13.49;46.00;101836.30;1644353;87;21046;-75
2021/10/06 08:45:29;;;;;;;30.15;7.53;;;;;;;13.54;47.25;101819.56;1651732;85;21046;-75
2021/10/06 08:47:57;;;;;;;20.32;5.22;;;;;;;13.64;46.52;101815.81;1672698;86;21611;-77
2021/10/06 08:50:24;;;;;;;25.50;6.65;;;;;;;13.75;45.00;101820.72;1672695;86;21050;-76
2021/10/06 08:52:51;;;;;;;33.70;8.78;;;;;;;13.76;43.99;101825.16;1672628;86;21591;-80
2021/10/06 08:55:27;;;;;;;39.80;7.90;;;;;;;13.74;42.72;101825.79;1672685;86;21567;-77
2021/10/06 08:57:49;;;;;;;29.82;7.53;;;;;;;13.63;41.42;101818.19;1670383;84;21183;-76
2021/10/06 09:00:16;;;;;;;35.38;7.55;;;;;;;13.51;41.69;101815.30;1669534;86;21058;-80
2021/10/06 09:02:43;;;;;;;33.78;6.03;;;;;;;13.51;40.70;101812.58;1669619;85;21031;-77
2021/10/06 09:05:11;;;;;;;20.57;3.55;;;;;;;13.54;40.67;101804.10;1668216;86;21105;-75
2021/10/06 09:08:02;;;;;;;23.55;4.17;;;;;;;13.56;39.69;101806.17;1591691;90;21039;-74
2021/10/06 09:10:31;;;;;;;42.78;8.05;;;;;;;13.46;40.35;101801.28;1579313;91;21085;-77
2021/10/06 09:13:05;;;;;;;22.75;5.67;;;;;;;13.39;41.55;101795.58;1579255;91;21088;-74
2021/10/06 09:15:45;;;;;;;43.45;8.55;;;;;;;13.51;42.11;101796.27;1573932;91;21073;-71
2021/10/06 09:18:14;;;;;;;23.45;5.53;;;;;;;13.75;42.44;101795.73;1553712;92;21573;-72
2021/10/06 09:20:40;;;;;;;21.70;4.97;;;;;;;14.00;42.07;101804.22;1599346;89;21057;-73
2021/10/06 09:23:11;;;;;;;23.60;4.72;;;;;;;14.08;39.62;101805.70;1642442;87;21407;-76
2021/10/06 09:26:04;;;;;;;21.02;4.70;;;;;;;14.14;40.06;101808.31;1643555;87;21518;-72
2021/10/06 09:28:35;;;;;;;22.30;4.60;;;;;;;14.11;38.62;101804.05;1643359;87;21199;-73
2021/10/06 09:31:17;;;;;;;31.25;5.08;;;;;;;14.02;39.11;101801.72;1643525;87;21032;-77
2021/10/06 09:33:52;;;;;;;32.90;4.75;;;;;;;14.01;39.28;101800.51;1643749;87;21557;-73
2021/10/06 09:36:25;;;;;;;34.53;4.90;;;;;;;14.02;39.25;101786.77;1642064;87;21069;-74
2021/10/06 09:38:56;;;;;;;33.95;5.15;;;;;;;14.00;38.71;101790.11;1609201;87;21125;-75
2021/10/06 09:41:44;;;;;;;19.90;4.40;;;;;;;14.06;38.88;101806.36;1616955;89;21098;-75
2021/10/06 09:44:17;;;;;;;26.48;4.08;;;;;;;14.09;38.10;101786.98;1616772;89;21492;-76
2021/10/06 09:46:54;;;;;;;25.92;5.33;;;;;;;14.05;39.01;101783.72;1617183;89;21070;-79
2021/10/06 09:49:28;;;;;;;26.07;4.30;;;;;;;14.10;39.71;101791.95;1617467;89;21083;-76
2021/10/06 09:52:23;;;;;;;20.45;4.47;;;;;;;14.19;39.68;101783.72;1565774;92;21099;-77
2021/10/06 09:55:01;;;;;;;26.73;6.00;;;;;;;14.25;39.38;101780.88;1512983;95;21109;-76
2021/10/06 09:57:35;;;;;;;24.52;4.83;;;;;;;14.36;39.30;101781.17;1514282;92;21132;-75
2021/10/06 10:00:20;;;;;;;46.42;12.75;;;;;;;14.36;39.30;101781.17;1545349;93;21052;-74
2021/10/06 10:02:49;;;;;;;70.37;22.22;;;;;;;14.54;37.89;101779.85;1545260;93;21088;-81
2021/10/06 10:05:17;;;;;;;80.45;30.12;;;;;;;14.35;37.88;101776.76;1545606;93;21664;-77
2021/10/06 10:07:44;;;;;;;27.07;7.55;;;;;;;14.28;37.97;101782.46;1532416;93;21120;-80
2021/10/06 10:10:12;;;;;;;45.67;12.90;;;;;;;14.27;38.67;101776.17;1522152;94;21107;-75
2021/10/06 10:12:39;;;;;;;24.85;6.30;;;;;;;14.21;38.15;101763.16;1538575;93;21099;-77
2021/10/06 10:15:08;;;;;;;36.33;5.55;;;;;;;14.23;39.16;101776.10;1546350;93;21080;-77
2021/10/06 10:17:36;;;;;;;22.60;4.95;;;;;;;14.28;38.14;101760.70;1546574;93;21099;-78
2021/10/06 10:20:11;;;;;;;21.95;4.90;;;;;;;14.24;38.37;101769.16;1526879;93;21056;-74
2021/10/06 10:22:46;;;;;;;19.52;4.37;;;;;;;14.32;39.26;101772.45;1558537;92;21132;-74
2021/10/06 10:25:22;;;;;;;18.27;5.30;;;;;;;14.52;38.83;101754.14;1531736;92;21578;-76
2021/10/06 10:28:17;;;;;;;22.50;4.70;;;;;;;14.59;37.97;101760.71;1533115;92;21035;-76
2021/10/06 10:30:59;;;;;;;22.20;4.92;;;;;;;14.67;38.01;101756.35;1553785;89;21079;-76
2021/10/06 10:33:48;;;;;;;22.55;5.12;;;;;;;14.70;38.12;101747.88;1598539;89;21553;-76
2021/10/06 10:36:37;;;;;;;30.12;5.20;;;;;;;14.80;38.24;101749.50;1595210;89;21582;-74
2021/10/06 10:39:07;;;;;;;31.80;5.67;;;;;;;14.80;38.24;101749.50;1588351;89;21133;-73
2021/10/06 10:41:49;;;;;;;26.15;4.45;;;;;;;15.01;37.88;101744.20;1583221;89;21199;-73
2021/10/06 10:44:31;;;;;;;22.13;4.90;;;;;;;14.99;36.15;101729.89;1606020;89;21522;-72
2021/10/06 10:47:01;;;;;;;51.53;7.00;;;;;;;14.85;36.45;101725.86;1586256;90;21571;-74
2021/10/06 10:49:54;;;;;;;25.95;5.62;;;;;;;14.76;36.03;101745.87;1630854;87;21046;-75
2021/10/06 10:52:47;;;;;;;23.85;5.17;;;;;;;14.63;37.28;101732.67;1639835;87;21483;-74
2021/10/06 10:55:17;;;;;;;30.02;5.85;;;;;;;14.63;37.28;101732.67;1638892;87;21025;-75
2021/10/06 10:57:44;;;;;;;21.82;4.40;;;;;;;14.70;36.75;101739.20;1588837;89;21573;-73
2021/10/06 11:00:31;;;;;;;27.07;4.85;;;;;;;14.69;37.04;101729.81;1535518;92;21121;-73
2021/10/06 11:03:01;;;;;;;27.50;5.08;;;;;;;14.65;36.72;101723.84;1555192;89;21113;-73
2021/10/06 11:05:45;;;;;;;26.33;5.67;;;;;;;14.50;36.12;101722.63;1528234;94;21266;-75
2021/10/06 11:08:35;;;;;;;42.23;11.30;;;;;;;14.39;38.15;101729.16;1488703;95;21116;-77
2021/10/06 11:11:20;;;;;;;27.80;6.28;;;;;;;14.39;38.15;101729.16;1488273;95;21080;-74
2021/10/06 11:13:48;;;;;;;34.43;7.42;;;;;;;14.53;37.07;101729.13;1498216;95;21605;-77
2021/10/06 11:16:15;;;;;;;23.87;5.20;;;;;;;14.73;37.32;101717.59;1501883;95;21565;-75
2021/10/06 11:18:51;;;;;;;23.60;4.90;;;;;;;14.73;37.32;101717.59;1502792;95;21079;-78
2021/10/06 11:21:32;;;;;;;27.67;6.35;;;;;;;14.79;36.29;101726.51;1502863;95;21663;-74
2021/10/06 11:24:00;;;;;;;35.90;9.55;;;;;;;14.69;36.03;101717.05;1519062;93;22390;-75